首页
METAR-TAF:

METAR-TAF

机场 :

卡昂, 法国

纬度: 49-11N, 经度: 000-27W, 海拔: 78米

当前天气观测

该预报发布于18分钟前的09:00 UTC
风速5节,风向东转东北,在东北东转东南之间变化
温度 15°C
湿度 88%
气压 1015 hPa
能见度10公里或以上
阴天层高于1000英尺

METAR: LFRK 190900Z AUTO 07005KT 040V110 9999 OVC010 15/13 Q1015 BECMG BKN016

时间: 11:18 (09:18 UTC)

预报

该预报发布于1小时和18分钟前的08:00 UTC
预报有效从19日的 09点(UTC)到 19日的 18点(UTC)
风速5节,风向东北
能见度10公里或以上
多云层高于900英尺
成为
从 19日的 09点(UTC)到 19日的 12点(UTC)
多云层高于1600英尺
短暂存在
从 19日的 13点(UTC)到 19日的 18点(UTC)
能見度: 4000
多云层高于3000英尺, 积雨云.
阵雨
几率 40% :
短暂存在
从 19日的 14点(UTC)到 19日的 18点(UTC)
风速15节,风向多变,有时为30节阵风
能見度: 2000
多云层高于600英尺
雷暴, 雨, 小冰雹或雪球

TAF: LFRK 190800Z 1909/1918 04005KT 9999 BKN009 BECMG 1909/1912 BKN016 TEMPO 1913/1918 4000 SHRA BKN030CB PROB40 TEMPO 1914/1918 VRB15G30KT 2000 TSRAGS BKN006

超过4000个机场的气象观测和天气预报(METAR&TAF报告)。

可查询的气象台以黄色和红色小点在地图上表示。

将鼠标移到小点上方,可查看气象台名称。

然后点击查看天气观测和预报。

如需切换地图:点击带黑十字的绿色按钮放大地图;点击带横线的绿色按钮缩小地图;或者点击绿色箭头查看邻近地区的地图。


METAR-TAF: